sensor_id;sensor_type;location;lat;lon;timestamp;pressure;altitude;pressure_sealevel;temperature;humidity
6144;BME280;3103;49.492;8.474;2024-01-30T00:00:49;101886.94;;;7.72;71.07
6144;BME280;3103;49.492;8.474;2024-01-30T00:03:16;101894.25;;;7.78;70.67
6144;BME280;3103;49.492;8.474;2024-01-30T00:05:43;101887.06;;;7.64;71.12
6144;BME280;3103;49.492;8.474;2024-01-30T00:08:09;101889.53;;;7.65;71.63
6144;BME280;3103;49.492;8.474;2024-01-30T00:10:38;101895.28;;;7.62;71.44
6144;BME280;3103;49.492;8.474;2024-01-30T00:13:05;101888.78;;;7.57;72.09
6144;BME280;3103;49.492;8.474;2024-01-30T00:15:32;101888.91;;;7.49;72.32
6144;BME280;3103;49.492;8.474;2024-01-30T00:17:59;101881.41;;;7.44;72.58
6144;BME280;3103;49.492;8.474;2024-01-30T00:20:26;101888.25;;;7.61;71.91
6144;BME280;3103;49.492;8.474;2024-01-30T00:22:53;101878.66;;;7.52;72.02
6144;BME280;3103;49.492;8.474;2024-01-30T00:25:20;101890.00;;;7.54;72.23
6144;BME280;3103;49.492;8.474;2024-01-30T00:27:47;101888.97;;;7.55;71.73
6144;BME280;3103;49.492;8.474;2024-01-30T00:30:14;101890.63;;;7.56;72.36
6144;BME280;3103;49.492;8.474;2024-01-30T00:32:41;101899.69;;;7.55;71.93
6144;BME280;3103;49.492;8.474;2024-01-30T00:35:10;101907.06;;;7.53;71.32
6144;BME280;3103;49.492;8.474;2024-01-30T00:37:38;101901.06;;;7.36;72.24
6144;BME280;3103;49.492;8.474;2024-01-30T00:40:05;101902.59;;;7.31;72.92
6144;BME280;3103;49.492;8.474;2024-01-30T00:42:33;101896.88;;;7.19;73.05
6144;BME280;3103;49.492;8.474;2024-01-30T00:45:00;101901.50;;;7.25;72.86
6144;BME280;3103;49.492;8.474;2024-01-30T00:47:30;101900.66;;;7.25;72.88
6144;BME280;3103;49.492;8.474;2024-01-30T00:49:59;101899.00;;;7.24;72.77
6144;BME280;3103;49.492;8.474;2024-01-30T00:52:28;101903.91;;;7.35;72.62
6144;BME280;3103;49.492;8.474;2024-01-30T00:54:55;101895.72;;;7.36;73.22
6144;BME280;3103;49.492;8.474;2024-01-30T00:57:22;101895.72;;;7.36;73.33
6144;BME280;3103;49.492;8.474;2024-01-30T00:59:49;101894.69;;;7.23;72.76
6144;BME280;3103;49.492;8.474;2024-01-30T01:02:16;101898.53;;;7.05;73.94
6144;BME280;3103;49.492;8.474;2024-01-30T01:04:44;101891.00;;;7.24;73.12
6144;BME280;3103;49.492;8.474;2024-01-30T01:07:11;101892.03;;;7.00;73.76
6144;BME280;3103;49.492;8.474;2024-01-30T01:09:39;101898.84;;;7.02;73.86
6144;BME280;3103;49.492;8.474;2024-01-30T01:12:06;101899.97;;;6.93;74.45
6144;BME280;3103;49.492;8.474;2024-01-30T01:14:33;101897.78;;;6.89;74.51
6144;BME280;3103;49.492;8.474;2024-01-30T01:17:00;101895.50;;;6.85;74.87
6144;BME280;3103;49.492;8.474;2024-01-30T01:19:27;101893.66;;;6.86;74.95
6144;BME280;3103;49.492;8.474;2024-01-30T01:21:54;101893.41;;;7.48;72.63
6144;BME280;3103;49.492;8.474;2024-01-30T01:24:21;101894.88;;;7.51;71.67
6144;BME280;3103;49.492;8.474;2024-01-30T01:26:47;101883.69;;;7.18;72.82
6144;BME280;3103;49.492;8.474;2024-01-30T01:29:15;101890.59;;;7.12;73.40
6144;BME280;3103;49.492;8.474;2024-01-30T01:31:43;101887.31;;;7.54;71.80
6144;BME280;3103;49.492;8.474;2024-01-30T01:34:11;101889.66;;;7.05;73.49
6144;BME280;3103;49.492;8.474;2024-01-30T01:36:39;101891.00;;;7.24;73.08
6144;BME280;3103;49.492;8.474;2024-01-30T01:39:06;101894.75;;;7.14;73.49
6144;BME280;3103;49.492;8.474;2024-01-30T01:41:33;101882.22;;;6.77;74.85
6144;BME280;3103;49.492;8.474;2024-01-30T01:44:00;101878.25;;;6.88;74.90
6144;BME280;3103;49.492;8.474;2024-01-30T01:46:27;101883.22;;;6.76;75.63
6144;BME280;3103;49.492;8.474;2024-01-30T01:48:56;101887.38;;;6.79;75.52
6144;BME280;3103;49.492;8.474;2024-01-30T01:51:27;101880.47;;;6.84;75.31
6144;BME280;3103;49.492;8.474;2024-01-30T01:53:55;101882.28;;;7.07;74.74
6144;BME280;3103;49.492;8.474;2024-01-30T01:56:23;101879.25;;;7.10;74.70
6144;BME280;3103;49.492;8.474;2024-01-30T01:58:51;101875.59;;;7.26;74.37
6144;BME280;3103;49.492;8.474;2024-01-30T02:01:23;101880.56;;;7.29;73.45
6144;BME280;3103;49.492;8.474;2024-01-30T02:03:50;101874.81;;;7.02;74.58
6144;BME280;3103;49.492;8.474;2024-01-30T02:06:17;101868.81;;;7.00;74.70
6144;BME280;3103;49.492;8.474;2024-01-30T02:08:45;101878.81;;;7.21;74.18
6144;BME280;3103;49.492;8.474;2024-01-30T02:11:12;101872.00;;;7.19;73.82
6144;BME280;3103;49.492;8.474;2024-01-30T02:13:41;101877.00;;;7.51;72.54
6144;BME280;3103;49.492;8.474;2024-01-30T02:16:08;101877.63;;;7.38;73.01
6144;BME280;3103;49.492;8.474;2024-01-30T02:18:35;101874.50;;;7.20;73.62
6144;BME280;3103;49.492;8.474;2024-01-30T02:21:17;101879.72;;;7.13;73.77
6144;BME280;3103;49.492;8.474;2024-01-30T02:23:46;101876.03;;;7.29;73.73
6144;BME280;3103;49.492;8.474;2024-01-30T02:26:14;101872.47;;;7.37;73.08
6144;BME280;3103;49.492;8.474;2024-01-30T02:28:41;101881.78;;;6.89;75.29
6144;BME280;3103;49.492;8.474;2024-01-30T02:31:08;101878.59;;;6.70;75.67
6144;BME280;3103;49.492;8.474;2024-01-30T02:33:35;101881.16;;;7.01;74.86
6144;BME280;3103;49.492;8.474;2024-01-30T02:36:02;101887.47;;;7.08;75.36
6144;BME280;3103;49.492;8.474;2024-01-30T02:38:29;101879.78;;;6.68;76.09
6144;BME280;3103;49.492;8.474;2024-01-30T02:40:56;101874.66;;;6.81;75.44
6144;BME280;3103;49.492;8.474;2024-01-30T02:43:23;101880.38;;;6.78;75.96
6144;BME280;3103;49.492;8.474;2024-01-30T02:45:50;101876.50;;;6.80;75.60
6144;BME280;3103;49.492;8.474;2024-01-30T02:48:17;101873.38;;;6.54;77.75
6144;BME280;3103;49.492;8.474;2024-01-30T02:50:44;101879.06;;;6.74;76.40
6144;BME280;3103;49.492;8.474;2024-01-30T02:53:12;101885.00;;;6.84;76.19
6144;BME280;3103;49.492;8.474;2024-01-30T02:55:39;101880.72;;;6.75;76.00
6144;BME280;3103;49.492;8.474;2024-01-30T02:58:06;101879.66;;;6.84;75.59
6144;BME280;3103;49.492;8.474;2024-01-30T03:00:34;101876.00;;;7.00;74.49
6144;BME280;3103;49.492;8.474;2024-01-30T03:03:01;101873.06;;;6.72;75.81
6144;BME280;3103;49.492;8.474;2024-01-30T03:05:28;101867.66;;;6.80;75.19
6144;BME280;3103;49.492;8.474;2024-01-30T03:07:55;101872.00;;;6.35;77.40
6144;BME280;3103;49.492;8.474;2024-01-30T03:10:22;101875.31;;;6.60;77.11
6144;BME280;3103;49.492;8.474;2024-01-30T03:12:49;101877.38;;;6.73;76.54
6144;BME280;3103;49.492;8.474;2024-01-30T03:15:16;101867.47;;;6.59;77.02
6144;BME280;3103;49.492;8.474;2024-01-30T03:17:43;101879.25;;;6.49;77.63
6144;BME280;3103;49.492;8.474;2024-01-30T03:20:10;101875.28;;;6.68;77.37
6144;BME280;3103;49.492;8.474;2024-01-30T03:22:37;101870.88;;;6.52;77.98
6144;BME280;3103;49.492;8.474;2024-01-30T03:25:05;101870.06;;;6.52;77.74
6144;BME280;3103;49.492;8.474;2024-01-30T03:27:33;101869.88;;;6.53;77.67
6144;BME280;3103;49.492;8.474;2024-01-30T03:30:00;101866.97;;;6.40;77.62
6144;BME280;3103;49.492;8.474;2024-01-30T03:32:29;101874.41;;;6.22;78.34
6144;BME280;3103;49.492;8.474;2024-01-30T03:34:56;101873.69;;;6.28;78.68
6144;BME280;3103;49.492;8.474;2024-01-30T03:37:25;101874.97;;;6.40;78.34
6144;BME280;3103;49.492;8.474;2024-01-30T03:39:52;101875.16;;;6.62;77.53
6144;BME280;3103;49.492;8.474;2024-01-30T03:42:19;101872.41;;;6.70;77.08
6144;BME280;3103;49.492;8.474;2024-01-30T03:44:46;101874.94;;;6.48;77.93
6144;BME280;3103;49.492;8.474;2024-01-30T03:47:12;101877.28;;;6.43;78.46
6144;BME280;3103;49.492;8.474;2024-01-30T03:49:40;101874.03;;;6.56;78.59
6144;BME280;3103;49.492;8.474;2024-01-30T03:52:07;101882.63;;;6.43;78.37
6144;BME280;3103;49.492;8.474;2024-01-30T03:54:33;101875.84;;;6.55;77.67
6144;BME280;3103;49.492;8.474;2024-01-30T03:57:00;101871.16;;;6.58;77.45
6144;BME280;3103;49.492;8.474;2024-01-30T03:59:27;101874.13;;;6.40;77.94
6144;BME280;3103;49.492;8.474;2024-01-30T04:01:54;101880.38;;;6.55;78.38
6144;BME280;3103;49.492;8.474;2024-01-30T04:04:24;101867.91;;;6.70;77.83
6144;BME280;3103;49.492;8.474;2024-01-30T04:06:53;101875.31;;;6.83;77.71
6144;BME280;3103;49.492;8.474;2024-01-30T04:09:20;101878.47;;;6.64;77.79
6144;BME280;3103;49.492;8.474;2024-01-30T04:11:47;101875.25;;;6.45;79.29
6144;BME280;3103;49.492;8.474;2024-01-30T04:14:14;101873.59;;;6.44;79.25
6144;BME280;3103;49.492;8.474;2024-01-30T04:16:41;101873.13;;;6.64;78.42
6144;BME280;3103;49.492;8.474;2024-01-30T04:19:08;101870.00;;;6.37;79.66
6144;BME280;3103;49.492;8.474;2024-01-30T04:21:35;101871.88;;;6.51;79.18
6144;BME280;3103;49.492;8.474;2024-01-30T04:24:02;101870.97;;;6.59;78.67
6144;BME280;3103;49.492;8.474;2024-01-30T04:26:28;101872.13;;;6.65;78.50
6144;BME280;3103;49.492;8.474;2024-01-30T04:28:56;101876.91;;;6.46;79.37
6144;BME280;3103;49.492;8.474;2024-01-30T04:31:22;101885.47;;;6.42;80.46
6144;BME280;3103;49.492;8.474;2024-01-30T04:33:49;101877.16;;;6.60;79.62
6144;BME280;3103;49.492;8.474;2024-01-30T04:36:16;101874.81;;;6.65;79.10
6144;BME280;3103;49.492;8.474;2024-01-30T04:38:43;101882.69;;;6.81;78.62
6144;BME280;3103;49.492;8.474;2024-01-30T04:41:10;101881.38;;;6.77;79.12
6144;BME280;3103;49.492;8.474;2024-01-30T04:43:37;101881.53;;;6.75;79.48
6144;BME280;3103;49.492;8.474;2024-01-30T04:46:04;101878.25;;;6.88;79.07
6144;BME280;3103;49.492;8.474;2024-01-30T04:48:32;101887.91;;;6.74;79.08
6144;BME280;3103;49.492;8.474;2024-01-30T04:50:59;101883.47;;;6.67;79.23
6144;BME280;3103;49.492;8.474;2024-01-30T04:53:30;101880.72;;;6.75;78.50
6144;BME280;3103;49.492;8.474;2024-01-30T04:55:57;101877.75;;;6.47;79.79
6144;BME280;3103;49.492;8.474;2024-01-30T04:58:23;101874.94;;;6.48;80.66
6144;BME280;3103;49.492;8.474;2024-01-30T05:00:50;101885.69;;;6.32;81.27
6144;BME280;3103;49.492;8.474;2024-01-30T05:03:19;101882.59;;;6.20;81.62
6144;BME280;3103;49.492;8.474;2024-01-30T05:05:46;101886.78;;;6.15;82.59
6144;BME280;3103;49.492;8.474;2024-01-30T05:08:13;101888.41;;;6.24;82.60
6144;BME280;3103;49.492;8.474;2024-01-30T05:10:40;101890.38;;;6.30;81.70
6144;BME280;3103;49.492;8.474;2024-01-30T05:13:07;101890.97;;;6.40;81.48
6144;BME280;3103;49.492;8.474;2024-01-30T05:15:34;101886.53;;;6.02;84.02
6144;BME280;3103;49.492;8.474;2024-01-30T05:18:03;101891.41;;;6.52;81.62
6144;BME280;3103;49.492;8.474;2024-01-30T05:20:30;101889.34;;;6.08;83.39
6144;BME280;3103;49.492;8.474;2024-01-30T05:22:57;101894.22;;;6.28;83.00
6144;BME280;3103;49.492;8.474;2024-01-30T05:25:24;101890.69;;;6.35;83.08
6144;BME280;3103;49.492;8.474;2024-01-30T05:27:51;101889.09;;;6.49;81.92
6144;BME280;3103;49.492;8.474;2024-01-30T05:30:19;101884.53;;;6.58;81.08
6144;BME280;3103;49.492;8.474;2024-01-30T05:32:48;101895.72;;;6.30;82.38
6144;BME280;3103;49.492;8.474;2024-01-30T05:35:16;101895.31;;;6.10;84.07
6144;BME280;3103;49.492;8.474;2024-01-30T05:37:43;101895.31;;;6.41;82.81
6144;BME280;3103;49.492;8.474;2024-01-30T05:40:10;101894.88;;;5.99;84.44
6144;BME280;3103;49.492;8.474;2024-01-30T05:42:37;101896.78;;;6.21;84.12
6144;BME280;3103;49.492;8.474;2024-01-30T05:45:04;101894.22;;;5.88;85.14
6144;BME280;3103;49.492;8.474;2024-01-30T05:47:32;101895.44;;;6.17;84.20
6144;BME280;3103;49.492;8.474;2024-01-30T05:49:59;101888.97;;;6.42;82.80
6144;BME280;3103;49.492;8.474;2024-01-30T05:52:26;101895.31;;;6.41;83.28
6144;BME280;3103;49.492;8.474;2024-01-30T05:54:53;101894.56;;;6.55;82.69
6144;BME280;3103;49.492;8.474;2024-01-30T05:57:19;101895.81;;;6.68;81.74
6144;BME280;3103;49.492;8.474;2024-01-30T05:59:46;101895.31;;;6.41;82.37
6144;BME280;3103;49.492;8.474;2024-01-30T06:02:14;101895.97;;;6.43;82.10
6144;BME280;3103;49.492;8.474;2024-01-30T06:04:41;101900.47;;;6.20;83.57
6144;BME280;3103;49.492;8.474;2024-01-30T06:07:08;101900.53;;;6.35;82.80
6144;BME280;3103;49.492;8.474;2024-01-30T06:09:35;101899.63;;;6.19;83.43
6144;BME280;3103;49.492;8.474;2024-01-30T06:12:02;101906.09;;;6.25;83.95
6144;BME280;3103;49.492;8.474;2024-01-30T06:14:29;101901.53;;;6.03;83.91
6144;BME280;3103;49.492;8.474;2024-01-30T06:16:56;101901.44;;;6.19;83.82
6144;BME280;3103;49.492;8.474;2024-01-30T06:19:23;101893.44;;;5.80;85.37
6144;BME280;3103;49.492;8.474;2024-01-30T06:21:50;101885.97;;;6.14;84.31
6144;BME280;3103;49.492;8.474;2024-01-30T06:24:16;101895.44;;;6.17;84.32
6144;BME280;3103;49.492;8.474;2024-01-30T06:26:43;101891.44;;;6.21;83.75
6144;BME280;3103;49.492;8.474;2024-01-30T06:29:12;101891.63;;;6.19;83.57
6144;BME280;3103;49.492;8.474;2024-01-30T06:31:40;101898.28;;;6.46;82.56
6144;BME280;3103;49.492;8.474;2024-01-30T06:34:09;101893.34;;;6.58;81.65
6144;BME280;3103;49.492;8.474;2024-01-30T06:36:38;101889.03;;;6.34;82.07
6144;BME280;3103;49.492;8.474;2024-01-30T06:39:05;101901.31;;;6.12;83.48
6144;BME280;3103;49.492;8.474;2024-01-30T06:41:32;101897.03;;;6.34;82.58
6144;BME280;3103;49.492;8.474;2024-01-30T06:44:01;101901.31;;;6.12;83.65
6144;BME280;3103;49.492;8.474;2024-01-30T06:46:28;101896.63;;;6.14;83.54
6144;BME280;3103;49.492;8.474;2024-01-30T06:48:58;101903.97;;;6.43;82.15
6144;BME280;3103;49.492;8.474;2024-01-30T06:51:26;101889.69;;;6.36;82.44
6144;BME280;3103;49.492;8.474;2024-01-30T06:53:52;101900.72;;;6.56;81.93
6144;BME280;3103;49.492;8.474;2024-01-30T06:56:19;101899.72;;;6.34;81.92
6144;BME280;3103;49.492;8.474;2024-01-30T06:58:48;101896.09;;;5.80;83.96
6144;BME280;3103;49.492;8.474;2024-01-30T07:01:15;101899.00;;;6.09;83.47
6144;BME280;3103;49.492;8.474;2024-01-30T07:03:43;101900.03;;;6.31;82.45
6144;BME280;3103;49.492;8.474;2024-01-30T07:06:10;101904.38;;;6.01;83.37
6144;BME280;3103;49.492;8.474;2024-01-30T07:08:40;101900.75;;;6.25;82.48
6144;BME280;3103;49.492;8.474;2024-01-30T07:11:07;101910.97;;;6.21;82.27
6144;BME280;3103;49.492;8.474;2024-01-30T07:13:34;101903.69;;;6.38;81.68
6144;BME280;3103;49.492;8.474;2024-01-30T07:16:01;101904.19;;;6.03;82.85
6144;BME280;3103;49.492;8.474;2024-01-30T07:18:28;101908.50;;;6.12;82.77
6144;BME280;3103;49.492;8.474;2024-01-30T07:20:55;101903.34;;;6.33;82.05
6144;BME280;3103;49.492;8.474;2024-01-30T07:23:22;101902.78;;;6.23;81.93
6144;BME280;3103;49.492;8.474;2024-01-30T07:25:49;101908.19;;;6.38;81.95
6144;BME280;3103;49.492;8.474;2024-01-30T07:28:17;101909.78;;;6.24;82.19
6144;BME280;3103;49.492;8.474;2024-01-30T07:30:44;101919.78;;;6.22;82.08
6144;BME280;3103;49.492;8.474;2024-01-30T07:33:12;101906.47;;;6.45;81.72
6144;BME280;3103;49.492;8.474;2024-01-30T07:35:40;101910.03;;;6.37;81.53
6144;BME280;3103;49.492;8.474;2024-01-30T07:38:08;101906.47;;;6.14;81.98
6144;BME280;3103;49.492;8.474;2024-01-30T07:40:34;101908.66;;;6.10;81.79
6144;BME280;3103;49.492;8.474;2024-01-30T07:43:02;101906.44;;;6.22;82.74
6144;BME280;3103;49.492;8.474;2024-01-30T07:45:30;101902.38;;;6.57;80.63
6144;BME280;3103;49.492;8.474;2024-01-30T07:48:00;101912.81;;;6.13;81.65
6144;BME280;3103;49.492;8.474;2024-01-30T07:50:27;101911.53;;;6.09;82.41
6144;BME280;3103;49.492;8.474;2024-01-30T07:52:59;101916.34;;;6.05;82.74
6144;BME280;3103;49.492;8.474;2024-01-30T07:55:26;101919.69;;;6.38;82.20
6144;BME280;3103;49.492;8.474;2024-01-30T07:57:58;101925.69;;;6.40;81.92
6144;BME280;3103;49.492;8.474;2024-01-30T08:00:26;101926.78;;;6.23;82.50
6144;BME280;3103;49.492;8.474;2024-01-30T08:02:53;101933.81;;;6.47;82.15
6144;BME280;3103;49.492;8.474;2024-01-30T08:05:22;101927.50;;;6.48;81.18
6144;BME280;3103;49.492;8.474;2024-01-30T08:07:50;101937.41;;;6.31;81.65
6144;BME280;3103;49.492;8.474;2024-01-30T08:10:17;101940.03;;;6.39;82.42
6144;BME280;3103;49.492;8.474;2024-01-30T08:12:47;101944.28;;;6.57;81.77
6144;BME280;3103;49.492;8.474;2024-01-30T08:15:14;101942.56;;;6.87;80.46
6144;BME280;3103;49.492;8.474;2024-01-30T08:17:41;101948.09;;;6.62;81.29
6144;BME280;3103;49.492;8.474;2024-01-30T08:20:09;101954.22;;;6.71;80.68
6144;BME280;3103;49.492;8.474;2024-01-30T08:22:39;101947.44;;;7.06;78.38
6144;BME280;3103;49.492;8.474;2024-01-30T08:25:09;101951.25;;;6.66;80.14
6144;BME280;3103;49.492;8.474;2024-01-30T08:27:37;101956.66;;;6.80;79.65
6144;BME280;3103;49.492;8.474;2024-01-30T08:30:08;101954.63;;;7.05;78.86
6144;BME280;3103;49.492;8.474;2024-01-30T08:32:37;101953.03;;;7.19;78.94
6144;BME280;3103;49.492;8.474;2024-01-30T08:35:04;101950.19;;;7.35;78.17
6144;BME280;3103;49.492;8.474;2024-01-30T08:37:31;101954.06;;;7.33;78.34
6144;BME280;3103;49.492;8.474;2024-01-30T08:39:58;101947.69;;;7.19;78.31
6144;BME280;3103;49.492;8.474;2024-01-30T08:42:25;101949.06;;;7.30;77.80
6144;BME280;3103;49.492;8.474;2024-01-30T08:44:52;101945.78;;;7.05;78.48
6144;BME280;3103;49.492;8.474;2024-01-30T08:47:20;101952.44;;;7.09;78.55
6144;BME280;3103;49.492;8.474;2024-01-30T08:49:46;101952.34;;;7.17;78.59
6144;BME280;3103;49.492;8.474;2024-01-30T08:52:13;101951.03;;;7.36;77.31
6144;BME280;3103;49.492;8.474;2024-01-30T08:54:41;101949.16;;;7.22;77.30
6144;BME280;3103;49.492;8.474;2024-01-30T08:57:07;101947.91;;;7.09;77.79
6144;BME280;3103;49.492;8.474;2024-01-30T08:59:37;101945.28;;;7.01;78.66
6144;BME280;3103;49.492;8.474;2024-01-30T09:02:04;101949.41;;;7.12;78.74
6144;BME280;3103;49.492;8.474;2024-01-30T09:04:39;101952.47;;;7.24;76.88
6144;BME280;3103;49.492;8.474;2024-01-30T09:07:06;101957.19;;;7.22;77.86
6144;BME280;3103;49.492;8.474;2024-01-30T09:09:40;101950.72;;;7.31;77.66
6144;BME280;3103;49.492;8.474;2024-01-30T09:12:08;101954.78;;;7.27;77.83
6144;BME280;3103;49.492;8.474;2024-01-30T09:14:39;101957.66;;;7.40;77.25
6144;BME280;3103;49.492;8.474;2024-01-30T09:17:05;101950.59;;;7.47;76.99
6144;BME280;3103;49.492;8.474;2024-01-30T09:19:32;101957.94;;;7.45;76.41
6144;BME280;3103;49.492;8.474;2024-01-30T09:22:00;101955.28;;;7.45;76.73
6144;BME280;3103;49.492;8.474;2024-01-30T09:24:27;101952.38;;;7.32;76.76
6144;BME280;3103;49.492;8.474;2024-01-30T09:26:56;101955.75;;;7.49;76.90
6144;BME280;3103;49.492;8.474;2024-01-30T09:29:23;101963.16;;;7.76;75.67
6144;BME280;3103;49.492;8.474;2024-01-30T09:31:49;101965.25;;;7.51;76.93
6144;BME280;3103;49.492;8.474;2024-01-30T09:34:17;101965.25;;;7.51;76.81
6144;BME280;3103;49.492;8.474;2024-01-30T09:36:44;101965.00;;;7.61;75.95
6144;BME280;3103;49.492;8.474;2024-01-30T09:39:13;101968.00;;;7.43;76.56
6144;BME280;3103;49.492;8.474;2024-01-30T09:41:48;101965.25;;;7.51;76.30
6144;BME280;3103;49.492;8.474;2024-01-30T09:44:16;101976.81;;;7.66;75.46
6144;BME280;3103;49.492;8.474;2024-01-30T09:46:46;101966.53;;;7.40;77.01
6144;BME280;3103;49.492;8.474;2024-01-30T09:49:15;101965.19;;;7.74;77.12
6144;BME280;3103;49.492;8.474;2024-01-30T09:51:46;101964.53;;;7.72;76.11
6144;BME280;3103;49.492;8.474;2024-01-30T09:54:14;101968.78;;;7.96;75.88
6144;BME280;3103;49.492;8.474;2024-01-30T09:56:41;101969.44;;;7.98;75.10
6144;BME280;3103;49.492;8.474;2024-01-30T09:59:09;101972.41;;;8.03;75.28
6144;BME280;3103;49.492;8.474;2024-01-30T10:01:38;101973.97;;;7.83;75.80
6144;BME280;3103;49.492;8.474;2024-01-30T10:04:05;101974.78;;;8.13;75.71
6144;BME280;3103;49.492;8.474;2024-01-30T10:06:34;101982.44;;;8.16;75.92
6144;BME280;3103;49.492;8.474;2024-01-30T10:09:01;101980.50;;;8.24;75.04
6144;BME280;3103;49.492;8.474;2024-01-30T10:11:27;101971.56;;;8.02;73.97
6144;BME280;3103;49.492;8.474;2024-01-30T10:13:54;101968.72;;;7.74;75.68
6144;BME280;3103;49.492;8.474;2024-01-30T10:16:21;101962.16;;;7.77;74.69
6144;BME280;3103;49.492;8.474;2024-01-30T10:18:48;101977.84;;;7.80;75.20
6144;BME280;3103;49.492;8.474;2024-01-30T10:21:16;101971.28;;;7.97;73.88
6144;BME280;3103;49.492;8.474;2024-01-30T10:23:44;101972.31;;;7.96;74.02
6144;BME280;3103;49.492;8.474;2024-01-30T10:26:11;101968.41;;;7.55;75.29
6144;BME280;3103;49.492;8.474;2024-01-30T10:28:38;101959.28;;;7.93;75.69
6144;BME280;3103;49.492;8.474;2024-01-30T10:31:05;101967.69;;;8.20;74.01
6144;BME280;3103;49.492;8.474;2024-01-30T10:33:34;101964.19;;;8.04;73.69
6144;BME280;3103;49.492;8.474;2024-01-30T10:36:03;101957.06;;;7.97;73.62
6144;BME280;3103;49.492;8.474;2024-01-30T10:38:32;101968.50;;;8.20;73.21
6144;BME280;3103;49.492;8.474;2024-01-30T10:41:01;101959.72;;;8.26;72.68
6144;BME280;3103;49.492;8.474;2024-01-30T10:43:35;101973.78;;;7.84;74.52
6144;BME280;3103;49.492;8.474;2024-01-30T10:46:25;101965.47;;;8.09;74.00
6144;BME280;3103;49.492;8.474;2024-01-30T10:48:58;101959.09;;;8.39;73.51
6144;BME280;3103;49.492;8.474;2024-01-30T10:51:26;101964.88;;;8.43;73.37
6144;BME280;3103;49.492;8.474;2024-01-30T10:53:56;101957.22;;;8.40;73.20
6144;BME280;3103;49.492;8.474;2024-01-30T10:56:25;101961.91;;;8.52;72.73
6144;BME280;3103;49.492;8.474;2024-01-30T10:58:53;101956.72;;;8.66;73.78
6144;BME280;3103;49.492;8.474;2024-01-30T11:01:21;101956.03;;;8.78;72.89
6144;BME280;3103;49.492;8.474;2024-01-30T11:03:53;101957.84;;;8.56;73.13
6144;BME280;3103;49.492;8.474;2024-01-30T11:06:25;101961.13;;;8.73;71.31
6144;BME280;3103;49.492;8.474;2024-01-30T11:09:02;101969.28;;;8.86;71.77
6144;BME280;3103;49.492;8.474;2024-01-30T11:11:30;101962.78;;;8.96;70.72
6144;BME280;3103;49.492;8.474;2024-01-30T11:14:01;101962.78;;;8.74;72.07
6144;BME280;3103;49.492;8.474;2024-01-30T11:16:32;101961.31;;;8.93;70.15
6144;BME280;3103;49.492;8.474;2024-01-30T11:19:00;101961.88;;;8.67;70.85
6144;BME280;3103;49.492;8.474;2024-01-30T11:21:28;101960.75;;;8.76;71.23
6144;BME280;3103;49.492;8.474;2024-01-30T11:23:57;101970.63;;;8.97;70.47
6144;BME280;3103;49.492;8.474;2024-01-30T11:26:28;101969.16;;;8.95;70.97
6144;BME280;3103;49.492;8.474;2024-01-30T11:28:57;101970.59;;;8.90;70.73
6144;BME280;3103;49.492;8.474;2024-01-30T11:31:26;101953.53;;;8.98;71.00
6144;BME280;3103;49.492;8.474;2024-01-30T11:33:53;101955.75;;;8.95;70.57
6144;BME280;3103;49.492;8.474;2024-01-30T11:36:25;101955.00;;;8.79;71.32
6144;BME280;3103;49.492;8.474;2024-01-30T11:38:54;101947.34;;;8.76;71.30
6144;BME280;3103;49.492;8.474;2024-01-30T11:41:21;101950.91;;;8.83;71.92
6144;BME280;3103;49.492;8.474;2024-01-30T11:43:52;101953.09;;;8.95;71.90
6144;BME280;3103;49.492;8.474;2024-01-30T11:46:19;101936.63;;;8.98;71.64
6144;BME280;3103;49.492;8.474;2024-01-30T11:48:47;101935.78;;;8.97;71.73
6144;BME280;3103;49.492;8.474;2024-01-30T11:51:14;101924.78;;;9.13;71.79
6144;BME280;3103;49.492;8.474;2024-01-30T11:53:42;101912.28;;;9.20;72.02
6144;BME280;3103;49.492;8.474;2024-01-30T11:56:12;101907.16;;;9.26;71.72
6144;BME280;3103;49.492;8.474;2024-01-30T11:58:42;101907.66;;;9.14;71.60
6144;BME280;3103;49.492;8.474;2024-01-30T12:01:11;101911.72;;;9.04;72.28
6144;BME280;3103;49.492;8.474;2024-01-30T12:03:39;101912.50;;;9.26;71.60
6144;BME280;3103;49.492;8.474;2024-01-30T12:06:06;101909.06;;;9.32;71.83
6144;BME280;3103;49.492;8.474;2024-01-30T12:08:33;101897.41;;;9.46;71.31
6144;BME280;3103;49.492;8.474;2024-01-30T12:11:00;101898.06;;;9.55;70.90
6144;BME280;3103;49.492;8.474;2024-01-30T12:13:32;101903.06;;;9.58;70.76
6144;BME280;3103;49.492;8.474;2024-01-30T12:16:00;101899.34;;;9.59;70.58
6144;BME280;3103;49.492;8.474;2024-01-30T12:18:28;101903.41;;;9.55;70.98
6144;BME280;3103;49.492;8.474;2024-01-30T12:20:59;101900.16;;;9.59;71.03
6144;BME280;3103;49.492;8.474;2024-01-30T12:23:29;101892.78;;;9.68;69.99
6144;BME280;3103;49.492;8.474;2024-01-30T12:25:57;101885.34;;;9.70;70.79
6144;BME280;3103;49.492;8.474;2024-01-30T12:28:24;101888.84;;;9.64;71.29
6144;BME280;3103;49.492;8.474;2024-01-30T12:30:55;101880.03;;;9.76;70.91
6144;BME280;3103;49.492;8.474;2024-01-30T12:33:26;101897.19;;;9.82;70.20
6144;BME280;3103;49.492;8.474;2024-01-30T12:35:54;101885.53;;;9.62;70.49
6144;BME280;3103;49.492;8.474;2024-01-30T12:38:29;101899.66;;;9.77;70.37
6144;BME280;3103;49.492;8.474;2024-01-30T12:40:56;101896.22;;;9.96;69.72
6144;BME280;3103;49.492;8.474;2024-01-30T12:43:25;101884.66;;;9.96;70.02
6144;BME280;3103;49.492;8.474;2024-01-30T12:46:04;101896.00;;;9.91;70.52
6144;BME280;3103;49.492;8.474;2024-01-30T12:48:31;101894.91;;;9.79;69.81
6144;BME280;3103;49.492;8.474;2024-01-30T12:50:59;101888.84;;;10.05;69.02
6144;BME280;3103;49.492;8.474;2024-01-30T12:53:26;101886.34;;;10.10;68.92
6144;BME280;3103;49.492;8.474;2024-01-30T12:55:53;101891.38;;;10.20;69.10
6144;BME280;3103;49.492;8.474;2024-01-30T12:58:21;101889.91;;;10.17;68.83
6144;BME280;3103;49.492;8.474;2024-01-30T13:00:48;101893.63;;;10.16;68.97
6144;BME280;3103;49.492;8.474;2024-01-30T13:03:16;101887.19;;;10.10;69.69
6144;BME280;3103;49.492;8.474;2024-01-30T13:05:43;101903.75;;;10.21;69.45
6144;BME280;3103;49.492;8.474;2024-01-30T13:08:10;101889.03;;;10.10;69.85
6144;BME280;3103;49.492;8.474;2024-01-30T13:10:37;101893.00;;;10.21;69.17
6144;BME280;3103;49.492;8.474;2024-01-30T13:13:04;101896.66;;;10.00;70.40
6144;BME280;3103;49.492;8.474;2024-01-30T13:15:52;101877.28;;;10.11;70.90
6144;BME280;3103;49.492;8.474;2024-01-30T13:18:20;101883.13;;;10.21;71.09
6144;BME280;3103;49.492;8.474;2024-01-30T13:20:49;101879.84;;;10.26;70.42
6144;BME280;3103;49.492;8.474;2024-01-30T13:23:17;101885.03;;;10.40;69.66
6144;BME280;3103;49.492;8.474;2024-01-30T13:25:47;101884.03;;;10.42;69.76